Daily Tabular Data
[Select Refresh to Update]


10/15/19
Time         Wind Dir   Wind Spd  Wind Gust     Hum In   Humidity    Temp In       Temp  Raw Barom   Tot Rain Wind Chill Heat Ix In Heat Index  Dew Point  DailyRain   HourRain   RainRate
                            mph        mph          %          %         F         F         in         in         F         F         F         F         in         in      in/hr
12:00am           244          0          0         47         90       73.0       58.0      29.13       0.17       58.0       73.5       63.6       55.1       0.00       0.00      0.000
12:30am           193          0          2         47         90       72.9       57.5      29.12       0.17       57.5       73.4       63.1       54.6       0.00       0.00      0.000
1:00am            180          0          1         47         90       72.7       56.8      29.12       0.17       56.8       73.2       62.4       53.9       0.00       0.00      0.000
1:30am            180          0          0         47         90       72.5       56.1      29.12       0.17       56.1       73.0       61.7       53.2       0.00       0.00      0.000
2:00am            180          0          0         47         90       72.2       55.9      29.12       0.17       55.9       72.7       61.5       53.0       0.00       0.00      0.000
2:30am            180          0          0         47         90       72.0       56.0      29.12       0.17       56.0       72.5       61.6       53.1       0.00       0.00      0.000
3:00am            179          0          1         47         91       71.8       55.4      29.13       0.17       55.4       72.3       61.2       52.8       0.00       0.00      0.000
3:30am            166          0          1         47         91       71.6       55.4      29.13       0.17       55.4       72.1       61.2       52.8       0.00       0.00      0.000
4:00am            166          0          0         47         92       71.4       54.7      29.13       0.17       54.7       71.9       60.6       52.4       0.00       0.00      0.000
4:30am            137          0          0         47         92       71.2       54.6      29.12       0.17       54.6       71.7       60.5       52.3       0.00       0.00      0.000
5:00am            136          0          0         47         93       70.9       54.5      29.12       0.17       54.5       71.4       60.6       52.5       0.00       0.00      0.000
5:30am             74          0          2         47         93       70.9       54.8      29.12       0.17       54.8       71.4       60.9       52.8       0.00       0.00      0.000
6:00am             72          0          0         47         92       70.7       53.9      29.13       0.17       53.9       71.2       59.8       51.6       0.00       0.00      0.000
6:30am             71          0          0         47         92       70.5       53.6      29.14       0.17       53.6       71.0       59.5       51.3       0.00       0.00      0.000
7:00am             62          2          3         47         92       70.3       54.2      29.14       0.17       54.2       70.8       60.1       51.9       0.00       0.00      0.000
7:30am             62          0          2         47         90       70.1       54.4      29.15       0.17       54.4       70.6       60.0       51.5       0.00       0.00      0.000
8:00am             62          0          0         47         86       70.0       57.6      29.17       0.17       57.6       70.5       62.7       53.4       0.00       0.00      0.000
8:30am             65          0          0         47         81       70.0       62.1      29.17       0.17       62.1       70.5       66.5       56.2       0.00       0.00      0.000
9:00am            197          0          6         47         70       70.1       66.3      29.17       0.17       66.3       70.6       69.3       56.2       0.00       0.00      0.000
9:30am            230          0          0         47         73       70.3       66.0      29.17       0.17       66.0       70.8       69.3       57.1       0.00       0.00      0.000
10:00am           219          0          1         47         73       70.4       67.1      29.18       0.17       67.1       70.9       70.4       58.2       0.00       0.00      0.000
10:30am           225          0          4         47         71       70.7       68.8      29.18       0.17       68.8       71.2       71.9       59.0       0.00       0.00      0.000
11:00am           266          2          4         46         63       70.9       71.1      29.18       0.17       71.1       71.3       73.2       57.9       0.00       0.00      0.000
11:30am           264          7         11         46         59       71.2       72.6      29.17       0.17       72.6       71.6       74.3       57.5       0.00       0.00      0.000
12:00pm           241          0          9         45         55       71.4       74.3      29.16       0.17       74.3       71.7       75.6       57.1       0.00       0.00      0.000
12:30pm           236          4         11         45         55       71.7       75.0      29.15       0.17       75.0       72.0       76.3       57.8       0.00       0.00      0.000
1:00pm            246          5         13         45         52       72.0       76.7      29.14       0.17       76.7       72.3       77.7       57.8       0.00       0.00      0.000
1:30pm            240          9         10         45         50       72.3       78.2      29.13       0.17       78.2       72.6       79.0       58.1       0.00       0.00      0.000
2:00pm            264          0         11         45         47       72.6       80.4      29.10       0.17       80.4       72.9       80.9       58.3       0.00       0.00      0.000
2:30pm            248          2         10         45         45       72.9       81.7      29.09       0.17       81.7       73.2       81.8       58.3       0.00       0.00      0.000
3:00pm            252          5         12         45         43       73.2       82.5      29.08       0.17       82.5       73.5       82.3       57.8       0.00       0.00      0.000
3:30pm            259          4         12         46         43       73.5       83.2      29.07       0.17       83.2       73.9       83.0       58.4       0.00       0.00      0.000
4:00pm            242          3         11         46         45       73.8       83.1      29.07       0.17       83.1       74.2       83.2       59.6       0.00       0.00      0.000
4:30pm            258         10         12         46         50       74.1       81.5      29.07       0.17       81.5       74.5       82.2       61.1       0.00       0.00      0.000
5:00pm            238          9         10         46         53       74.4       80.2      29.07       0.17       80.2       74.8       81.3       61.5       0.00       0.00      0.000
5:30pm            248          3          9         46         52       74.6       78.9      29.07       0.17       78.9       75.0       79.9       59.8       0.00       0.00      0.000
6:00pm            245          1          9         47         55       74.8       77.6      29.07       0.17       77.6       75.3       78.9       60.2       0.00       0.00      0.000
6:30pm            242          2          4         47         60       74.9       75.6      29.08       0.17       75.6       75.4       77.4       60.8       0.00       0.00      0.000